createdAt,value
2023-03-11T00:00:59.537Z,95520.22
2023-03-11T00:03:29.044Z,95517.28
2023-03-11T00:05:58.630Z,95510.00
2023-03-11T00:08:28.361Z,95510.53
2023-03-11T00:10:58.818Z,95514.66
2023-03-11T00:13:28.948Z,95515.41
2023-03-11T00:15:58.015Z,95517.84
2023-03-11T00:18:30.105Z,95518.34
2023-03-11T00:21:00.121Z,95509.16
2023-03-11T00:23:30.300Z,95510.28
2023-03-11T00:25:59.910Z,95515.59
2023-03-11T00:28:28.167Z,95511.09
2023-03-11T00:30:56.380Z,95514.66
2023-03-11T00:33:24.898Z,95511.13
2023-03-11T00:35:53.169Z,95513.22
2023-03-11T00:38:21.902Z,95511.69
2023-03-11T00:40:51.865Z,95502.84
2023-03-11T00:43:20.042Z,95508.25
2023-03-11T00:45:48.351Z,95508.84
2023-03-11T00:48:16.499Z,95502.59
2023-03-11T00:50:45.117Z,95508.13
2023-03-11T00:53:13.385Z,95517.19
2023-03-11T00:55:41.505Z,95514.94
2023-03-11T00:58:14.059Z,95523.56
2023-03-11T01:00:46.669Z,95521.97
2023-03-11T01:03:14.841Z,95526.16
2023-03-11T01:05:43.132Z,95536.59
2023-03-11T01:08:11.291Z,95538.97
2023-03-11T01:10:39.450Z,95532.03
2023-03-11T01:13:07.598Z,95543.00
2023-03-11T01:15:38.865Z,95536.06
2023-03-11T01:18:08.041Z,95544.81
2023-03-11T01:20:36.202Z,95541.34
2023-03-11T01:23:04.553Z,95539.66
2023-03-11T01:25:32.753Z,95537.75
2023-03-11T01:28:01.063Z,95536.91
2023-03-11T01:30:31.042Z,95526.97
2023-03-11T01:33:00.532Z,95534.75
2023-03-11T01:35:31.356Z,95525.41
2023-03-11T01:38:00.735Z,95530.19
2023-03-11T01:40:32.634Z,95532.34
2023-03-11T01:43:06.013Z,95526.69
2023-03-11T01:45:43.037Z,95523.56
2023-03-11T01:48:14.605Z,95533.56
2023-03-11T01:50:45.359Z,95544.97
2023-03-11T01:53:17.810Z,95548.56
2023-03-11T01:55:48.060Z,95545.16
2023-03-11T01:58:19.901Z,95553.28
2023-03-11T02:00:48.217Z,95537.97
2023-03-11T02:03:22.559Z,95549.88
2023-03-11T02:05:52.673Z,95542.44
2023-03-11T02:08:20.951Z,95546.25
2023-03-11T02:10:53.425Z,95539.44
2023-03-11T02:13:22.037Z,95546.53
2023-03-11T02:15:50.533Z,95545.41
2023-03-11T02:18:21.239Z,95546.56
2023-03-11T02:20:58.429Z,95550.25
2023-03-11T02:23:31.042Z,95555.59
2023-03-11T02:26:05.072Z,95562.53
2023-03-11T02:28:38.303Z,95567.56
2023-03-11T02:31:06.544Z,95572.03
2023-03-11T02:33:37.855Z,95562.94
2023-03-11T02:36:07.044Z,95553.84
2023-03-11T02:38:35.207Z,95564.22
2023-03-11T02:41:04.172Z,95572.34
2023-03-11T02:43:38.794Z,95563.22
2023-03-11T02:46:10.911Z,95566.81
2023-03-11T02:48:40.391Z,95561.91
2023-03-11T02:51:08.735Z,95567.25
2023-03-11T02:53:42.729Z,95577.97
2023-03-11T02:56:11.529Z,95567.19
2023-03-11T02:58:41.151Z,95578.63
2023-03-11T03:01:11.466Z,95581.31
2023-03-11T03:03:41.865Z,95596.97
2023-03-11T03:06:10.014Z,95591.34
2023-03-11T03:08:38.914Z,95591.19
2023-03-11T03:11:07.326Z,95589.19
2023-03-11T03:13:36.360Z,95598.03
2023-03-11T03:16:06.682Z,95590.38
2023-03-11T03:18:35.205Z,95589.63
2023-03-11T03:21:03.387Z,95583.78
2023-03-11T03:23:35.203Z,95589.66
2023-03-11T03:26:03.629Z,95583.47
2023-03-11T03:28:32.632Z,95588.00
2023-03-11T03:31:07.236Z,95596.41
2023-03-11T03:33:36.888Z,95593.13
2023-03-11T03:36:08.401Z,95599.31
2023-03-11T03:38:41.230Z,95609.59
2023-03-11T03:41:09.379Z,95603.72
2023-03-11T03:43:41.114Z,95606.53
2023-03-11T03:46:11.422Z,95598.22
2023-03-11T03:48:43.565Z,95600.56
2023-03-11T03:51:14.630Z,95599.50
2023-03-11T03:53:51.857Z,95597.00
2023-03-11T03:56:20.318Z,95590.09
2023-03-11T03:58:48.461Z,95599.75
2023-03-11T04:01:18.606Z,95609.78
2023-03-11T04:03:46.863Z,95601.50
2023-03-11T04:06:19.200Z,95606.09
2023-03-11T04:08:51.595Z,95611.06
2023-03-11T04:11:21.149Z,95618.91
2023-03-11T04:13:49.640Z,95625.91
2023-03-11T04:16:22.219Z,95622.78
2023-03-11T04:18:51.917Z,95637.66
2023-03-11T04:21:21.374Z,95620.56
2023-03-11T04:23:49.861Z,95619.47
2023-03-11T04:26:20.773Z,95622.00
2023-03-11T04:28:48.867Z,95615.53
2023-03-11T04:31:19.269Z,95625.81
2023-03-11T04:33:47.445Z,95623.94
2023-03-11T04:36:15.935Z,95624.97
2023-03-11T04:38:44.072Z,95630.72
2023-03-11T04:41:13.552Z,95639.72
2023-03-11T04:43:43.139Z,95655.84
2023-03-11T04:46:11.262Z,95646.38
2023-03-11T04:48:42.453Z,95636.72
2023-03-11T04:51:10.795Z,95654.06
2023-03-11T04:53:38.898Z,95641.97
2023-03-11T04:56:07.379Z,95659.44
2023-03-11T04:58:37.759Z,95668.16
2023-03-11T05:01:06.210Z,95651.09
2023-03-11T05:03:35.130Z,95665.28
2023-03-11T05:06:05.054Z,95657.53
2023-03-11T05:08:33.218Z,95658.44
2023-03-11T05:11:01.352Z,95668.94
2023-03-11T05:13:30.241Z,95665.00
2023-03-11T05:15:58.562Z,95682.75
2023-03-11T05:18:27.515Z,95679.66
2023-03-11T05:20:55.748Z,95691.09
2023-03-11T05:23:28.574Z,95695.06
2023-03-11T05:25:56.730Z,95691.63
2023-03-11T05:28:25.076Z,95699.06
2023-03-11T05:30:54.681Z,95690.34
2023-03-11T05:33:23.776Z,95706.69
2023-03-11T05:35:53.171Z,95691.53
2023-03-11T05:38:22.193Z,95716.38
2023-03-11T05:40:51.777Z,95709.31
2023-03-11T05:43:19.886Z,95719.69
2023-03-11T05:45:53.581Z,95722.00
2023-03-11T05:48:21.807Z,95726.19
2023-03-11T05:50:50.398Z,95716.19
2023-03-11T05:53:19.272Z,95724.44
2023-03-11T05:55:47.504Z,95715.31
2023-03-11T05:58:17.101Z,95721.34
2023-03-11T06:00:45.427Z,95723.97
2023-03-11T06:03:13.552Z,95727.78
2023-03-11T06:05:46.329Z,95734.00
2023-03-11T06:08:14.941Z,95744.88
2023-03-11T06:10:43.597Z,95718.91
2023-03-11T06:13:12.423Z,95716.94
2023-03-11T06:15:50.322Z,95734.38
2023-03-11T06:18:19.229Z,95734.91
2023-03-11T06:20:47.470Z,95729.41
2023-03-11T06:23:15.594Z,95739.25
2023-03-11T06:25:43.794Z,95748.38
2023-03-11T06:28:12.551Z,95744.03
2023-03-11T06:30:41.600Z,95742.63
2023-03-11T06:33:15.104Z,95747.06
2023-03-11T06:35:44.183Z,95751.63
2023-03-11T06:38:12.456Z,95754.03
2023-03-11T06:40:40.581Z,95751.41
2023-03-11T06:43:08.661Z,95744.38
2023-03-11T06:45:40.320Z,95768.91
2023-03-11T06:48:09.600Z,95781.47
2023-03-11T06:50:39.912Z,95781.22
2023-03-11T06:53:08.073Z,95789.00
2023-03-11T06:55:37.594Z,95797.16
2023-03-11T06:58:06.122Z,95797.63
2023-03-11T07:00:34.843Z,95800.28
2023-03-11T07:03:04.367Z,95804.97
2023-03-11T07:05:32.837Z,95815.50
2023-03-11T07:08:08.040Z,95806.31
2023-03-11T07:10:36.264Z,95818.50
2023-03-11T07:13:04.844Z,95825.69
2023-03-11T07:15:33.841Z,95816.88
2023-03-11T07:18:02.020Z,95817.56
2023-03-11T07:20:30.559Z,95822.84
2023-03-11T07:22:58.697Z,95821.91
2023-03-11T07:25:28.160Z,95831.47
2023-03-11T07:27:56.320Z,95840.69
2023-03-11T07:30:24.368Z,95840.91
2023-03-11T07:32:52.509Z,95848.44
2023-03-11T07:35:20.594Z,95847.66
2023-03-11T07:37:48.724Z,95847.38
2023-03-11T07:40:17.344Z,95862.59
2023-03-11T07:42:46.816Z,95858.78
2023-03-11T07:45:15.319Z,95840.31
2023-03-11T07:47:43.453Z,95863.19
2023-03-11T07:50:12.603Z,95863.16
2023-03-11T07:52:40.994Z,95867.03
2023-03-11T07:55:09.826Z,95869.03
2023-03-11T07:57:37.969Z,95873.91
2023-03-11T08:00:08.623Z,95879.72
2023-03-11T08:02:40.256Z,95868.75
2023-03-11T08:05:09.247Z,95886.19
2023-03-11T08:07:37.326Z,95867.78
2023-03-11T08:10:05.891Z,95871.94
2023-03-11T08:12:34.108Z,95865.94
2023-03-11T08:15:02.206Z,95858.75
2023-03-11T08:17:31.698Z,95862.16
2023-03-11T08:19:59.955Z,95852.03
2023-03-11T08:22:27.998Z,95867.09
2023-03-11T08:24:56.672Z,95866.81
2023-03-11T08:27:24.826Z,95870.09
2023-03-11T08:29:52.856Z,95873.88
2023-03-11T08:32:21.045Z,95872.09
2023-03-11T08:34:50.743Z,95879.31
2023-03-11T08:37:19.188Z,95875.09
2023-03-11T08:39:47.284Z,95882.41
2023-03-11T08:42:15.420Z,95871.69
2023-03-11T08:44:43.608Z,95870.50
2023-03-11T08:47:11.951Z,95881.84
2023-03-11T08:49:40.315Z,95878.19
2023-03-11T08:52:09.973Z,95884.81
2023-03-11T08:54:38.131Z,95882.66
2023-03-11T08:57:06.290Z,95877.13
2023-03-11T08:59:34.316Z,95869.03
2023-03-11T09:02:02.425Z,95885.31
2023-03-11T09:04:30.608Z,95895.53
2023-03-11T09:06:58.677Z,95883.09
2023-03-11T09:09:28.159Z,95894.31
2023-03-11T09:11:56.233Z,95883.59
2023-03-11T09:14:24.410Z,95881.75
2023-03-11T09:16:52.501Z,95890.31
2023-03-11T09:19:20.783Z,95904.69
2023-03-11T09:21:49.039Z,95910.00
2023-03-11T09:24:17.176Z,95895.34
2023-03-11T09:26:46.646Z,95902.41
2023-03-11T09:29:14.729Z,95897.38
2023-03-11T09:31:42.937Z,95902.19
2023-03-11T09:34:15.031Z,95897.03
2023-03-11T09:36:44.302Z,95898.50
2023-03-11T09:39:12.662Z,95912.00
2023-03-11T09:41:57.567Z,95922.09
2023-03-11T09:44:35.322Z,95929.50
2023-03-11T09:47:38.225Z,95925.03
2023-03-11T09:50:30.498Z,95935.28
2023-03-11T09:53:18.885Z,95945.00
2023-03-11T09:55:48.381Z,95947.06
2023-03-11T09:58:23.772Z,95938.34
2023-03-11T10:00:53.954Z,95941.31
2023-03-11T10:03:28.909Z,95939.94
2023-03-11T10:06:06.019Z,95949.22
2023-03-11T10:08:39.373Z,95954.25
2023-03-11T10:11:18.379Z,95961.22
2023-03-11T10:13:55.325Z,95960.81
2023-03-11T10:16:34.394Z,95950.84
2023-03-11T10:19:10.388Z,95978.13
2023-03-11T10:21:49.430Z,95976.34
2023-03-11T10:24:43.495Z,95980.69
2023-03-11T10:27:17.629Z,95978.66
2023-03-11T10:29:54.057Z,95984.38
2023-03-11T10:32:28.931Z,95991.41
2023-03-11T10:35:05.319Z,95979.03
2023-03-11T10:37:49.404Z,95992.03
2023-03-11T10:40:27.293Z,95992.84
2023-03-11T10:42:58.371Z,95993.03
2023-03-11T10:45:27.036Z,95987.06
2023-03-11T10:47:57.947Z,96010.06
2023-03-11T10:50:26.007Z,96011.44
2023-03-11T10:53:08.282Z,96021.63
2023-03-11T10:55:37.165Z,96013.50
2023-03-11T10:58:13.297Z,95996.63
2023-03-11T11:00:41.600Z,96001.47
2023-03-11T11:03:24.933Z,96011.38
2023-03-11T11:06:04.482Z,96002.81
2023-03-11T11:08:34.210Z,95999.31
2023-03-11T11:11:03.783Z,96002.63
2023-03-11T11:13:34.633Z,96012.28
2023-03-11T11:16:04.774Z,96003.91
2023-03-11T11:18:37.357Z,96014.47
2023-03-11T11:21:07.561Z,96014.94
2023-03-11T11:23:44.319Z,96009.47
2023-03-11T11:26:18.972Z,95996.44
2023-03-11T11:28:47.180Z,96001.69
2023-03-11T11:31:27.015Z,96001.22
2023-03-11T11:33:57.711Z,95995.91
2023-03-11T11:36:30.739Z,96006.53
2023-03-11T11:39:02.878Z,96005.47
2023-03-11T11:41:34.164Z,96025.84
2023-03-11T11:44:06.650Z,96022.28
2023-03-11T11:46:40.964Z,96014.31
2023-03-11T11:49:18.506Z,96026.81
2023-03-11T11:51:53.207Z,96022.97
2023-03-11T11:54:28.975Z,96017.81
2023-03-11T11:56:57.650Z,96027.56
2023-03-11T11:59:26.670Z,96018.44
2023-03-11T12:02:07.842Z,96023.41
2023-03-11T12:04:57.982Z,96010.28
2023-03-11T12:07:58.137Z,96015.53
2023-03-11T12:10:30.399Z,96024.63
2023-03-11T12:13:29.156Z,96012.81
2023-03-11T12:16:03.140Z,96009.28
2023-03-11T12:18:37.033Z,96022.44
2023-03-11T12:21:21.796Z,96003.06
2023-03-11T12:24:02.416Z,96021.66
2023-03-11T12:26:36.736Z,96014.50
2023-03-11T12:29:15.679Z,96023.47
2023-03-11T12:31:46.147Z,96019.31
2023-03-11T12:34:19.364Z,96019.31
2023-03-11T12:36:51.082Z,96022.38
2023-03-11T12:39:25.124Z,96014.66
2023-03-11T12:42:16.389Z,96028.72
2023-03-11T12:44:44.916Z,96023.69
2023-03-11T12:47:31.042Z,96009.97
2023-03-11T12:50:32.147Z,96027.22
2023-03-11T12:53:01.624Z,96015.16
2023-03-11T12:55:39.961Z,96022.88
2023-03-11T12:58:30.387Z,96027.22
2023-03-11T13:01:18.842Z,96042.38
2023-03-11T13:04:12.776Z,96028.41
2023-03-11T13:07:14.941Z,96027.13
2023-03-11T13:09:44.559Z,96031.59
2023-03-11T13:12:44.016Z,96046.53
2023-03-11T13:15:30.891Z,96047.78
2023-03-11T13:18:05.329Z,96045.84
2023-03-11T13:20:57.351Z,96053.16
2023-03-11T13:23:31.619Z,96061.94
2023-03-11T13:26:30.450Z,96052.59
2023-03-11T13:29:25.020Z,96062.94
2023-03-11T13:32:27.885Z,96070.44
2023-03-11T13:35:07.026Z,96073.94
2023-03-11T13:37:46.073Z,96077.44
2023-03-11T13:40:24.336Z,96081.72
2023-03-11T13:42:57.338Z,96094.97
2023-03-11T13:45:30.099Z,96095.16
2023-03-11T13:48:02.661Z,96098.31
2023-03-11T13:50:36.381Z,96086.75
2023-03-11T13:53:11.382Z,96091.56
2023-03-11T13:55:43.075Z,96108.06
2023-03-11T13:58:22.753Z,96093.81
2023-03-11T14:00:52.506Z,96103.28
2023-03-11T14:03:23.936Z,96098.56
2023-03-11T14:05:59.754Z,96112.69
2023-03-11T14:08:29.998Z,96101.13
2023-03-11T14:10:59.927Z,96110.03
2023-03-11T14:13:31.383Z,96122.19
2023-03-11T14:16:05.699Z,96118.69
2023-03-11T14:18:36.898Z,96122.81
2023-03-11T14:21:07.537Z,96133.41
2023-03-11T14:23:41.203Z,96146.78
2023-03-11T14:26:14.922Z,96135.44
2023-03-11T14:28:48.069Z,96144.56
2023-03-11T14:31:31.914Z,96145.31
2023-03-11T14:34:04.545Z,96152.88
2023-03-11T14:36:42.395Z,96148.41
2023-03-11T14:39:31.797Z,96149.19
2023-03-11T14:42:07.673Z,96153.63
2023-03-11T14:44:43.106Z,96158.66
2023-03-11T14:47:18.256Z,96166.31
2023-03-11T14:49:49.169Z,96162.84
2023-03-11T14:52:22.469Z,96169.81
2023-03-11T14:54:53.885Z,96174.16
2023-03-11T14:57:29.053Z,96175.84
2023-03-11T14:59:59.661Z,96185.56
2023-03-11T15:02:39.517Z,96190.13
2023-03-11T15:05:16.795Z,96198.06
2023-03-11T15:07:46.318Z,96205.88
2023-03-11T15:10:15.682Z,96202.88
2023-03-11T15:12:45.767Z,96213.75
2023-03-11T15:15:28.878Z,96218.03
2023-03-11T15:18:00.884Z,96232.28
2023-03-11T15:20:31.619Z,96221.31
2023-03-11T15:23:02.026Z,96236.09
2023-03-11T15:25:34.146Z,96244.22
2023-03-11T15:28:25.690Z,96234.31
2023-03-11T15:31:16.412Z,96251.38
2023-03-11T15:33:45.817Z,96255.00
2023-03-11T15:36:31.419Z,96262.56
2023-03-11T15:39:14.706Z,96262.66
2023-03-11T15:41:43.858Z,96248.09
2023-03-11T15:44:29.343Z,96269.72
2023-03-11T15:47:00.962Z,96273.91
2023-03-11T15:49:30.749Z,96280.72
2023-03-11T15:52:02.780Z,96280.66
2023-03-11T15:54:31.306Z,96283.13
2023-03-11T15:57:02.716Z,96286.34
2023-03-11T15:59:35.646Z,96306.34
2023-03-11T16:02:16.806Z,96295.16
2023-03-11T16:04:45.356Z,96307.94
2023-03-11T16:07:14.096Z,96320.47
2023-03-11T16:09:43.827Z,96317.94
2023-03-11T16:12:18.607Z,96332.88
2023-03-11T16:14:48.196Z,96333.91
2023-03-11T16:17:19.902Z,96341.63
2023-03-11T16:19:49.731Z,96354.09
2023-03-11T16:22:25.334Z,96358.91
2023-03-11T16:24:56.433Z,96356.81
2023-03-11T16:27:25.740Z,96356.56
2023-03-11T16:29:56.132Z,96363.28
2023-03-11T16:32:27.661Z,96379.50
2023-03-11T16:34:56.179Z,96388.16
2023-03-11T16:37:24.907Z,96386.00
2023-03-11T16:39:54.380Z,96401.75
2023-03-11T16:42:24.813Z,96405.31
2023-03-11T16:44:54.735Z,96402.66
2023-03-11T16:47:24.028Z,96405.63
2023-03-11T16:49:54.628Z,96419.69
2023-03-11T16:52:25.898Z,96429.41
2023-03-11T16:54:55.467Z,96415.59
2023-03-11T16:57:24.416Z,96436.19
2023-03-11T16:59:53.735Z,96425.84
2023-03-11T17:02:24.518Z,96438.28
2023-03-11T17:04:55.246Z,96438.59
2023-03-11T17:07:25.247Z,96444.19
2023-03-11T17:09:54.127Z,96443.03
2023-03-11T17:12:23.231Z,96462.50
2023-03-11T17:14:52.463Z,96457.25
2023-03-11T17:17:24.512Z,96472.31
2023-03-11T17:19:55.610Z,96483.88
2023-03-11T17:22:26.324Z,96484.19
2023-03-11T17:24:55.606Z,96493.44
2023-03-11T17:27:26.401Z,96517.16
2023-03-11T17:30:01.118Z,96511.44
2023-03-11T17:32:31.025Z,96521.22
2023-03-11T17:35:02.132Z,96532.78
2023-03-11T17:37:32.514Z,96533.94
2023-03-11T17:40:02.498Z,96542.34
2023-03-11T17:42:32.257Z,96534.63
2023-03-11T17:45:01.545Z,96556.94
2023-03-11T17:47:34.079Z,96561.56
2023-03-11T17:50:04.648Z,96567.84
2023-03-11T17:52:34.031Z,96567.19
2023-03-11T17:55:04.002Z,96571.50
2023-03-11T17:57:44.421Z,96584.69
2023-03-11T18:00:15.742Z,96589.09
2023-03-11T18:02:48.294Z,96598.16
2023-03-11T18:05:21.017Z,96603.09
2023-03-11T18:07:50.910Z,96616.47
2023-03-11T18:10:20.534Z,96621.06
2023-03-11T18:12:50.023Z,96619.97
2023-03-11T18:15:20.377Z,96621.84
2023-03-11T18:17:50.685Z,96630.69
2023-03-11T18:20:22.036Z,96631.69
2023-03-11T18:22:51.584Z,96637.16
2023-03-11T18:25:22.683Z,96649.28
2023-03-11T18:27:51.717Z,96650.59
2023-03-11T18:30:24.104Z,96649.56
2023-03-11T18:32:53.650Z,96662.16
2023-03-11T18:35:25.022Z,96657.84
2023-03-11T18:37:54.369Z,96658.00
2023-03-11T18:40:25.724Z,96664.19
2023-03-11T18:42:55.852Z,96667.22
2023-03-11T18:45:25.338Z,96670.03
2023-03-11T18:47:55.210Z,96657.44
2023-03-11T18:50:26.126Z,96675.47
2023-03-11T18:52:56.430Z,96670.56
2023-03-11T18:55:27.730Z,96682.59
2023-03-11T18:57:57.150Z,96675.47
2023-03-11T19:00:27.632Z,96670.03
2023-03-11T19:02:56.797Z,96677.47
2023-03-11T19:05:28.890Z,96693.13
2023-03-11T19:07:58.547Z,96694.16
2023-03-11T19:10:28.134Z,96700.44
2023-03-11T19:13:01.295Z,96696.13
2023-03-11T19:15:31.031Z,96687.84
2023-03-11T19:18:07.128Z,96687.84
2023-03-11T19:20:38.914Z,96697.25
2023-03-11T19:23:09.866Z,96697.25
2023-03-11T19:25:41.354Z,96708.09
2023-03-11T19:28:14.069Z,96708.38
2023-03-11T19:30:43.108Z,96709.78
2023-03-11T19:33:12.496Z,96717.88
2023-03-11T19:35:42.306Z,96711.84
2023-03-11T19:38:11.093Z,96710.34
2023-03-11T19:40:40.860Z,96719.16
2023-03-11T19:43:10.857Z,96719.16
2023-03-11T19:45:41.325Z,96730.22
2023-03-11T19:48:13.140Z,96739.34
2023-03-11T19:50:45.954Z,96746.38
2023-03-11T19:53:15.657Z,96742.47
2023-03-11T19:55:45.988Z,96758.09
2023-03-11T19:58:15.891Z,96756.25
2023-03-11T20:00:48.680Z,96761.72
2023-03-11T20:03:20.510Z,96769.97
2023-03-11T20:05:55.162Z,96768.59
2023-03-11T20:08:26.038Z,96783.78
2023-03-11T20:10:55.868Z,96782.06
2023-03-11T20:13:25.673Z,96783.84
2023-03-11T20:15:54.951Z,96789.88
2023-03-11T20:18:24.315Z,96784.09
2023-03-11T20:20:54.747Z,96792.75
2023-03-11T20:23:24.237Z,96792.91
2023-03-11T20:25:53.559Z,96793.78
2023-03-11T20:28:25.652Z,96789.78
2023-03-11T20:30:55.854Z,96806.66
2023-03-11T20:33:25.873Z,96800.63
2023-03-11T20:36:05.475Z,96797.91
2023-03-11T20:38:35.501Z,96789.78
2023-03-11T20:41:08.787Z,96800.19
2023-03-11T20:43:39.515Z,96801.06
2023-03-11T20:46:11.401Z,96800.53
2023-03-11T20:48:41.530Z,96796.56
2023-03-11T20:51:15.656Z,96798.56
2023-03-11T20:53:44.906Z,96799.63
2023-03-11T20:56:16.261Z,96802.16
2023-03-11T20:58:47.617Z,96805.78
2023-03-11T21:01:19.391Z,96808.50
2023-03-11T21:03:48.463Z,96822.41
2023-03-11T21:06:23.179Z,96821.81
2023-03-11T21:08:53.970Z,96823.59
2023-03-11T21:11:26.201Z,96827.28
2023-03-11T21:13:56.920Z,96821.19
2023-03-11T21:16:27.201Z,96840.81
2023-03-11T21:18:57.587Z,96840.69
2023-03-11T21:21:28.373Z,96851.13
2023-03-11T21:23:57.865Z,96848.56
2023-03-11T21:26:26.203Z,96862.69
2023-03-11T21:28:55.690Z,96864.47
2023-03-11T21:31:29.428Z,96863.16
2023-03-11T21:34:03.830Z,96878.06
2023-03-11T21:36:33.663Z,96878.38
2023-03-11T21:39:03.662Z,96886.44
2023-03-11T21:41:32.434Z,96886.34
2023-03-11T21:44:01.206Z,96892.75
2023-03-11T21:46:31.574Z,96902.59
2023-03-11T21:49:01.630Z,96885.19
2023-03-11T21:51:30.581Z,96884.03
2023-03-11T21:54:00.350Z,96889.53
2023-03-11T21:56:28.940Z,96898.47
2023-03-11T21:58:57.466Z,96896.00
2023-03-11T22:01:25.882Z,96905.91
2023-03-11T22:03:55.253Z,96914.53
2023-03-11T22:06:24.163Z,96921.47
2023-03-11T22:08:52.830Z,96923.94
2023-03-11T22:11:22.444Z,96912.81
2023-03-11T22:13:52.604Z,96925.78
2023-03-11T22:16:21.479Z,96918.69
2023-03-11T22:18:50.401Z,96924.84
2023-03-11T22:21:20.693Z,96937.97
2023-03-11T22:23:50.226Z,96935.22
2023-03-11T22:26:18.390Z,96930.88
2023-03-11T22:28:48.014Z,96931.03
2023-03-11T22:31:18.737Z,96936.44
2023-03-11T22:33:47.334Z,96936.56
2023-03-11T22:36:15.587Z,96938.22
2023-03-11T22:38:45.071Z,96940.13
2023-03-11T22:41:13.960Z,96950.47
2023-03-11T22:43:42.165Z,96958.44
2023-03-11T22:46:11.834Z,96953.09
2023-03-11T22:48:40.351Z,96961.34
2023-03-11T22:51:08.496Z,96972.69
2023-03-11T22:53:36.678Z,96967.75
2023-03-11T22:56:09.171Z,96967.47
2023-03-11T22:58:37.314Z,96969.53
2023-03-11T23:01:05.815Z,96972.38
2023-03-11T23:03:36.375Z,96973.16
2023-03-11T23:06:08.224Z,96974.94
2023-03-11T23:08:36.882Z,96970.59
2023-03-11T23:11:06.311Z,96962.56
2023-03-11T23:13:35.881Z,96971.22
2023-03-11T23:16:07.461Z,96979.72
2023-03-11T23:18:37.696Z,96984.34
2023-03-11T23:21:06.331Z,96988.66
2023-03-11T23:23:34.510Z,96991.28
2023-03-11T23:26:08.668Z,96999.03
2023-03-11T23:28:36.926Z,96991.91
2023-03-11T23:31:05.674Z,96989.94
2023-03-11T23:33:33.847Z,96991.56
2023-03-11T23:36:04.989Z,97007.16
2023-03-11T23:38:33.260Z,97000.16
2023-03-11T23:41:01.368Z,97004.84
2023-03-11T23:43:29.501Z,97007.03
2023-03-11T23:45:57.711Z,97001.00
2023-03-11T23:48:25.885Z,97007.44
2023-03-11T23:50:54.009Z,97007.94
2023-03-11T23:53:23.614Z,97011.13
2023-03-11T23:55:51.816Z,97018.50
2023-03-11T23:58:20.186Z,97033.59
